sensor_id;sensor_type;location;lat;lon;timestamp;pressure;altitude;pressure_sealevel;temperature;humidity
74573;BME280;63071;51.526;-0.134;2022-09-17T00:00:40;101747.25;;;24.88;29.18
74573;BME280;63071;51.526;-0.134;2022-09-17T00:03:06;101756.78;;;24.89;29.16
74573;BME280;63071;51.526;-0.134;2022-09-17T00:05:32;101762.91;;;24.90;29.22
74573;BME280;63071;51.526;-0.134;2022-09-17T00:07:58;101762.16;;;24.89;29.14
74573;BME280;63071;51.526;-0.134;2022-09-17T00:10:24;101757.88;;;24.85;29.19
74573;BME280;63071;51.526;-0.134;2022-09-17T00:12:50;101760.22;;;24.90;28.97
74573;BME280;63071;51.526;-0.134;2022-09-17T00:15:16;101762.91;;;24.90;29.26
74573;BME280;63071;51.526;-0.134;2022-09-17T00:17:41;101758.34;;;24.90;29.60
74573;BME280;63071;51.526;-0.134;2022-09-17T00:20:08;101759.06;;;24.87;29.34
74573;BME280;63071;51.526;-0.134;2022-09-17T00:22:35;101769.06;;;24.90;29.62
74573;BME280;63071;51.526;-0.134;2022-09-17T00:25:02;101762.56;;;24.91;29.32
74573;BME280;63071;51.526;-0.134;2022-09-17T00:27:27;101759.13;;;24.91;29.72
74573;BME280;63071;51.526;-0.134;2022-09-17T00:29:53;101767.16;;;24.91;29.29
74573;BME280;63071;51.526;-0.134;2022-09-17T00:32:18;101763.28;;;24.88;29.71
74573;BME280;63071;51.526;-0.134;2022-09-17T00:34:44;101751.44;;;24.89;29.32
74573;BME280;63071;51.526;-0.134;2022-09-17T00:37:11;101755.69;;;24.90;29.81
74573;BME280;63071;51.526;-0.134;2022-09-17T00:39:36;101751.03;;;24.87;29.56
74573;BME280;63071;51.526;-0.134;2022-09-17T00:42:02;101762.91;;;24.90;29.56
74573;BME280;63071;51.526;-0.134;2022-09-17T00:44:53;101764.81;;;24.89;29.63
74573;BME280;63071;51.526;-0.134;2022-09-17T00:47:30;101761.38;;;24.89;29.69
74573;BME280;63071;51.526;-0.134;2022-09-17T00:50:05;101756.44;;;24.91;29.76
74573;BME280;63071;51.526;-0.134;2022-09-17T00:52:37;101747.25;;;24.88;29.34
74573;BME280;63071;51.526;-0.134;2022-09-17T00:55:29;101746.44;;;24.88;29.78
74573;BME280;63071;51.526;-0.134;2022-09-17T00:58:01;101749.13;;;24.88;29.41
74573;BME280;63071;51.526;-0.134;2022-09-17T01:00:28;101754.13;;;24.89;29.46
74573;BME280;63071;51.526;-0.134;2022-09-17T01:02:55;101747.66;;;24.90;29.79
74573;BME280;63071;51.526;-0.134;2022-09-17T01:06:06;101755.69;;;24.90;29.84
74573;BME280;63071;51.526;-0.134;2022-09-17T01:14:41;101751.44;;;24.89;29.65
74573;BME280;63071;51.526;-0.134;2022-09-17T01:29:16;101761.38;;;24.89;29.82
74573;BME280;63071;51.526;-0.134;2022-09-17T01:32:05;101757.16;;;24.88;29.72
74573;BME280;63071;51.526;-0.134;2022-09-17T01:40:35;101758.28;;;24.87;29.86
74573;BME280;63071;51.526;-0.134;2022-09-17T01:43:19;101768.63;;;24.88;29.74
74573;BME280;63071;51.526;-0.134;2022-09-17T01:45:48;101765.59;;;24.90;29.93
74573;BME280;63071;51.526;-0.134;2022-09-17T01:48:20;101755.25;;;24.88;30.26
74573;BME280;63071;51.526;-0.134;2022-09-17T01:51:03;101761.03;;;24.90;30.04
74573;BME280;63071;51.526;-0.134;2022-09-17T01:53:59;101770.91;;;24.86;30.07
74573;BME280;63071;51.526;-0.134;2022-09-17T01:56:32;101760.56;;;24.85;29.74
74573;BME280;63071;51.526;-0.134;2022-09-17T01:59:53;101763.28;;;24.88;29.85
74573;BME280;63071;51.526;-0.134;2022-09-17T02:02:02;101766.72;;;24.89;29.85
74573;BME280;63071;51.526;-0.134;2022-09-17T02:04:35;101760.63;;;24.88;30.00
74573;BME280;63071;51.526;-0.134;2022-09-17T02:07:07;101759.47;;;24.89;30.12
74573;BME280;63071;51.526;-0.134;2022-09-17T02:09:52;101768.63;;;24.88;29.95
74573;BME280;63071;51.526;-0.134;2022-09-17T02:12:30;101755.97;;;24.85;29.97
74573;BME280;63071;51.526;-0.134;2022-09-17T02:15:01;101769.75;;;24.87;30.02
74573;BME280;63071;51.526;-0.134;2022-09-17T02:19:54;101757.94;;;24.88;30.03
74573;BME280;63071;51.526;-0.134;2022-09-17T02:22:28;101762.50;;;24.88;30.36
74573;BME280;63071;51.526;-0.134;2022-09-17T02:25:17;101753.72;;;24.87;29.87
74573;BME280;63071;51.526;-0.134;2022-09-17T02:30:16;101766.31;;;24.87;30.09
74573;BME280;63071;51.526;-0.134;2022-09-17T02:32:41;101761.31;;;24.85;30.22
74573;BME280;63071;51.526;-0.134;2022-09-17T02:35:09;101772.00;;;24.85;29.88
74573;BME280;63071;51.526;-0.134;2022-09-17T02:37:35;101769.00;;;24.87;30.18
74573;BME280;63071;51.526;-0.134;2022-09-17T02:40:01;101770.91;;;24.86;30.09
74573;BME280;63071;51.526;-0.134;2022-09-17T02:42:51;101765.91;;;24.85;30.20
74573;BME280;63071;51.526;-0.134;2022-09-17T02:46:00;101777.78;;;24.87;30.17
74573;BME280;63071;51.526;-0.134;2022-09-17T02:52:16;101771.25;;;24.85;29.98
74573;BME280;63071;51.526;-0.134;2022-09-17T02:54:30;101773.56;;;24.86;30.31
74573;BME280;63071;51.526;-0.134;2022-09-17T02:57:26;101780.78;;;24.86;30.17
74573;BME280;63071;51.526;-0.134;2022-09-17T03:02:54;101779.63;;;24.83;30.27
74573;BME280;63071;51.526;-0.134;2022-09-17T03:05:22;101777.72;;;24.84;30.42
74573;BME280;63071;51.526;-0.134;2022-09-17T03:07:47;101780.38;;;24.84;30.22
74573;BME280;63071;51.526;-0.134;2022-09-17T03:10:13;101781.88;;;24.81;30.15
74573;BME280;63071;51.526;-0.134;2022-09-17T03:12:40;101792.56;;;24.81;30.30
74573;BME280;63071;51.526;-0.134;2022-09-17T03:15:06;101783.84;;;24.84;30.03
74573;BME280;63071;51.526;-0.134;2022-09-17T03:17:32;101767.25;;;24.75;29.80
74573;BME280;63071;51.526;-0.134;2022-09-17T03:19:57;101786.53;;;24.84;30.04
74573;BME280;63071;51.526;-0.134;2022-09-17T03:22:23;101773.50;;;24.83;30.12
74573;BME280;63071;51.526;-0.134;2022-09-17T03:24:48;101776.19;;;24.83;29.99
74573;BME280;63071;51.526;-0.134;2022-09-17T03:27:14;101778.50;;;24.84;30.46
74573;BME280;63071;51.526;-0.134;2022-09-17T03:29:39;101778.84;;;24.83;30.08
74573;BME280;63071;51.526;-0.134;2022-09-17T03:32:05;101777.72;;;24.84;30.26
74573;BME280;63071;51.526;-0.134;2022-09-17T03:34:31;101784.97;;;24.83;30.17
74573;BME280;63071;51.526;-0.134;2022-09-17T03:36:57;101782.28;;;24.83;30.08
74573;BME280;63071;51.526;-0.134;2022-09-17T03:39:22;101778.09;;;24.82;30.23
74573;BME280;63071;51.526;-0.134;2022-09-17T03:41:48;101779.19;;;24.81;30.22
74573;BME280;63071;51.526;-0.134;2022-09-17T03:44:13;101781.19;;;24.84;30.25
74573;BME280;63071;51.526;-0.134;2022-09-17T03:46:40;101775.75;;;24.81;30.22
74573;BME280;63071;51.526;-0.134;2022-09-17T03:49:05;101776.94;;;24.83;30.25
74573;BME280;63071;51.526;-0.134;2022-09-17T03:51:31;101778.44;;;24.81;30.13
74573;BME280;63071;51.526;-0.134;2022-09-17T03:53:57;101780.75;;;24.82;30.38
74573;BME280;63071;51.526;-0.134;2022-09-17T03:56:22;101775.75;;;24.81;30.10
74573;BME280;63071;51.526;-0.134;2022-09-17T03:58:47;101793.34;;;24.82;30.12
74573;BME280;63071;51.526;-0.134;2022-09-17T04:01:13;101782.22;;;24.79;30.41
74573;BME280;63071;51.526;-0.134;2022-09-17T04:03:38;101792.16;;;24.79;30.55
74573;BME280;63071;51.526;-0.134;2022-09-17T04:06:04;101793.34;;;24.82;30.47
74573;BME280;63071;51.526;-0.134;2022-09-17T04:08:30;101790.63;;;24.78;30.13
74573;BME280;63071;51.526;-0.134;2022-09-17T04:10:55;101799.81;;;24.81;30.16
74573;BME280;63071;51.526;-0.134;2022-09-17T04:13:21;101800.59;;;24.81;30.13
74573;BME280;63071;51.526;-0.134;2022-09-17T04:15:47;101793.22;;;24.74;29.95
74573;BME280;63071;51.526;-0.134;2022-09-17T04:18:13;101795.56;;;24.76;30.19
74573;BME280;63071;51.526;-0.134;2022-09-17T04:20:39;101800.94;;;24.79;29.88
74573;BME280;63071;51.526;-0.134;2022-09-17T04:23:04;101798.63;;;24.78;30.41
74573;BME280;63071;51.526;-0.134;2022-09-17T04:25:32;101798.63;;;24.78;30.62
74573;BME280;63071;51.526;-0.134;2022-09-17T04:27:57;101794.81;;;24.79;30.49
74573;BME280;63071;51.526;-0.134;2022-09-17T04:30:23;101792.09;;;24.75;30.06
74573;BME280;63071;51.526;-0.134;2022-09-17T04:32:48;101792.50;;;24.77;30.38
74573;BME280;63071;51.526;-0.134;2022-09-17T04:35:14;101785.28;;;24.78;30.09
74573;BME280;63071;51.526;-0.134;2022-09-17T04:37:39;101795.13;;;24.74;30.55
74573;BME280;63071;51.526;-0.134;2022-09-17T04:40:06;101798.63;;;24.78;30.43
74573;BME280;63071;51.526;-0.134;2022-09-17T04:42:31;101791.31;;;24.75;30.55
74573;BME280;63071;51.526;-0.134;2022-09-17T04:44:57;101794.75;;;24.75;30.08
74573;BME280;63071;51.526;-0.134;2022-09-17T04:47:23;101792.88;;;24.76;30.16
74573;BME280;63071;51.526;-0.134;2022-09-17T04:49:49;101794.75;;;24.75;30.23
74573;BME280;63071;51.526;-0.134;2022-09-17T04:52:14;101794.00;;;24.75;30.22
74573;BME280;63071;51.526;-0.134;2022-09-17T04:54:40;101794.00;;;24.75;30.41
74573;BME280;63071;51.526;-0.134;2022-09-17T04:57:05;101786.72;;;24.75;30.40
74573;BME280;63071;51.526;-0.134;2022-09-17T04:59:31;101785.97;;;24.75;30.40
74573;BME280;63071;51.526;-0.134;2022-09-17T05:01:56;101791.31;;;24.75;30.46
74573;BME280;63071;51.526;-0.134;2022-09-17T05:04:22;101788.22;;;24.73;30.26
74573;BME280;63071;51.526;-0.134;2022-09-17T05:06:47;101789.78;;;24.74;30.54
74573;BME280;63071;51.526;-0.134;2022-09-17T05:09:13;101787.81;;;24.71;30.62
74573;BME280;63071;51.526;-0.134;2022-09-17T05:11:39;101797.81;;;24.74;30.32
74573;BME280;63071;51.526;-0.134;2022-09-17T05:14:04;101793.56;;;24.73;30.49
74573;BME280;63071;51.526;-0.134;2022-09-17T05:16:30;101804.69;;;24.75;30.25
74573;BME280;63071;51.526;-0.134;2022-09-17T05:18:55;101807.34;;;24.75;30.40
74573;BME280;63071;51.526;-0.134;2022-09-17T05:21:22;101808.50;;;24.74;30.07
74573;BME280;63071;51.526;-0.134;2022-09-17T05:23:47;101809.63;;;24.73;30.50
74573;BME280;63071;51.526;-0.134;2022-09-17T05:26:13;101810.75;;;24.72;30.33
74573;BME280;63071;51.526;-0.134;2022-09-17T05:28:38;101816.09;;;24.72;30.41
74573;BME280;63071;51.526;-0.134;2022-09-17T05:31:04;101812.28;;;24.73;30.73
74573;BME280;63071;51.526;-0.134;2022-09-17T05:33:30;101812.28;;;24.73;30.25
74573;BME280;63071;51.526;-0.134;2022-09-17T05:35:56;101810.34;;;24.70;30.29
74573;BME280;63071;51.526;-0.134;2022-09-17T05:38:21;101803.00;;;24.67;30.44
74573;BME280;63071;51.526;-0.134;2022-09-17T05:40:46;101814.19;;;24.72;30.42
74573;BME280;63071;51.526;-0.134;2022-09-17T05:43:14;101816.09;;;24.72;30.27
74573;BME280;63071;51.526;-0.134;2022-09-17T05:45:40;101814.97;;;24.73;30.40
74573;BME280;63071;51.526;-0.134;2022-09-17T05:48:10;101805.34;;;24.68;30.43
74573;BME280;63071;51.526;-0.134;2022-09-17T05:50:36;101813.44;;;24.72;30.53
74573;BME280;63071;51.526;-0.134;2022-09-17T05:53:11;101822.22;;;24.72;30.71
74573;BME280;63071;51.526;-0.134;2022-09-17T05:55:36;101822.97;;;24.73;30.55
74573;BME280;63071;51.526;-0.134;2022-09-17T05:58:10;101818.34;;;24.70;30.68
74573;BME280;63071;51.526;-0.134;2022-09-17T06:00:35;101823.31;;;24.71;30.40
74573;BME280;63071;51.526;-0.134;2022-09-17T06:03:01;101824.47;;;24.70;30.64
74573;BME280;63071;51.526;-0.134;2022-09-17T06:05:27;101830.59;;;24.71;30.50
74573;BME280;63071;51.526;-0.134;2022-09-17T06:07:52;101837.50;;;24.72;30.45
74573;BME280;63071;51.526;-0.134;2022-09-17T06:10:18;101834.81;;;24.72;30.63
74573;BME280;63071;51.526;-0.134;2022-09-17T06:12:43;101831.72;;;24.70;30.59
74573;BME280;63071;51.526;-0.134;2022-09-17T06:15:09;101839.75;;;24.70;30.67
74573;BME280;63071;51.526;-0.134;2022-09-17T06:17:39;101842.00;;;24.68;30.49
74573;BME280;63071;51.526;-0.134;2022-09-17T06:20:05;101845.09;;;24.70;30.62
74573;BME280;63071;51.526;-0.134;2022-09-17T06:22:30;101849.63;;;24.69;30.69
74573;BME280;63071;51.526;-0.134;2022-09-17T06:24:56;101846.97;;;24.69;30.41
74573;BME280;63071;51.526;-0.134;2022-09-17T06:27:29;101831.16;;;24.61;30.66
74573;BME280;63071;51.526;-0.134;2022-09-17T06:29:55;101843.53;;;24.69;30.41
74573;BME280;63071;51.526;-0.134;2022-09-17T06:32:20;101848.88;;;24.69;30.62
74573;BME280;63071;51.526;-0.134;2022-09-17T06:34:45;101858.09;;;24.71;30.72
74573;BME280;63071;51.526;-0.134;2022-09-17T06:37:11;101855.41;;;24.71;30.56
74573;BME280;63071;51.526;-0.134;2022-09-17T06:39:37;101843.94;;;24.71;30.59
74573;BME280;63071;51.526;-0.134;2022-09-17T06:42:02;101840.75;;;24.62;30.62
74573;BME280;63071;51.526;-0.134;2022-09-17T06:44:27;101851.19;;;24.70;30.66
74573;BME280;63071;51.526;-0.134;2022-09-17T06:46:53;101849.63;;;24.69;30.59
74573;BME280;63071;51.526;-0.134;2022-09-17T06:49:18;101850.00;;;24.68;30.82
74573;BME280;63071;51.526;-0.134;2022-09-17T06:51:44;101845.03;;;24.66;30.76
74573;BME280;63071;51.526;-0.134;2022-09-17T06:54:10;101853.88;;;24.70;30.73
74573;BME280;63071;51.526;-0.134;2022-09-17T06:56:35;101842.34;;;24.66;30.22
74573;BME280;63071;51.526;-0.134;2022-09-17T06:59:01;101853.09;;;24.70;30.40
74573;BME280;63071;51.526;-0.134;2022-09-17T07:01:27;101838.19;;;24.69;30.51
74573;BME280;63071;51.526;-0.134;2022-09-17T07:03:53;101839.75;;;24.70;30.54
74573;BME280;63071;51.526;-0.134;2022-09-17T07:06:19;101842.00;;;24.68;30.62
74573;BME280;63071;51.526;-0.134;2022-09-17T07:08:45;101849.63;;;24.69;30.37
74573;BME280;63071;51.526;-0.134;2022-09-17T07:11:12;101837.84;;;24.70;30.77
74573;BME280;63071;51.526;-0.134;2022-09-17T07:13:38;101830.50;;;24.67;30.30
74573;BME280;63071;51.526;-0.134;2022-09-17T07:16:04;101841.63;;;24.69;30.51
74573;BME280;63071;51.526;-0.134;2022-09-17T07:18:30;101846.63;;;24.71;30.57
74573;BME280;63071;51.526;-0.134;2022-09-17T07:20:58;101840.94;;;24.72;30.77
74573;BME280;63071;51.526;-0.134;2022-09-17T07:23:26;101848.19;;;24.72;30.56
74573;BME280;63071;51.526;-0.134;2022-09-17T07:25:58;101844.03;;;24.74;30.34
74573;BME280;63071;51.526;-0.134;2022-09-17T07:28:24;101839.03;;;24.73;30.50
74573;BME280;63071;51.526;-0.134;2022-09-17T07:30:51;101840.94;;;24.72;30.80
74573;BME280;63071;51.526;-0.134;2022-09-17T07:33:19;101839.03;;;24.73;30.48
74573;BME280;63071;51.526;-0.134;2022-09-17T07:36:00;101840.16;;;24.72;30.29
74573;BME280;63071;51.526;-0.134;2022-09-17T07:38:28;101840.16;;;24.72;30.30
74573;BME280;63071;51.526;-0.134;2022-09-17T07:40:58;101843.59;;;24.72;30.44
74573;BME280;63071;51.526;-0.134;2022-09-17T07:43:31;101839.78;;;24.73;30.57
74573;BME280;63071;51.526;-0.134;2022-09-17T07:45:59;101840.59;;;24.74;30.66
74573;BME280;63071;51.526;-0.134;2022-09-17T07:48:26;101830.94;;;24.69;30.60
74573;BME280;63071;51.526;-0.134;2022-09-17T07:50:53;101829.09;;;24.73;30.73
74573;BME280;63071;51.526;-0.134;2022-09-17T07:53:19;101820.97;;;24.66;30.77
74573;BME280;63071;51.526;-0.134;2022-09-17T07:55:57;101833.31;;;24.74;30.52
74573;BME280;63071;51.526;-0.134;2022-09-17T07:58:32;101833.31;;;24.74;30.43
74573;BME280;63071;51.526;-0.134;2022-09-17T08:01:03;101838.69;;;24.74;30.98
74573;BME280;63071;51.526;-0.134;2022-09-17T08:03:29;101823.28;;;24.68;30.23
74573;BME280;63071;51.526;-0.134;2022-09-17T08:06:06;101824.13;;;24.72;30.72
74573;BME280;63071;51.526;-0.134;2022-09-17T08:08:34;101819.97;;;24.74;30.28
74573;BME280;63071;51.526;-0.134;2022-09-17T08:11:05;101826.06;;;24.75;30.35
74573;BME280;63071;51.526;-0.134;2022-09-17T08:13:32;101828.06;;;24.78;30.64
74573;BME280;63071;51.526;-0.134;2022-09-17T08:16:00;101826.91;;;24.79;30.28
74573;BME280;63071;51.526;-0.134;2022-09-17T08:18:26;101833.03;;;24.79;30.75
74573;BME280;63071;51.526;-0.134;2022-09-17T08:20:56;101829.22;;;24.81;30.42
74573;BME280;63071;51.526;-0.134;2022-09-17T08:23:22;101832.69;;;24.81;30.75
74573;BME280;63071;51.526;-0.134;2022-09-17T08:25:52;101831.56;;;24.82;30.67
74573;BME280;63071;51.526;-0.134;2022-09-17T08:28:18;101840.34;;;24.83;30.51
74573;BME280;63071;51.526;-0.134;2022-09-17T08:30:43;101832.25;;;24.79;30.33
74573;BME280;63071;51.526;-0.134;2022-09-17T08:33:10;101833.81;;;24.80;30.28
74573;BME280;63071;51.526;-0.134;2022-09-17T08:35:36;101839.94;;;24.81;30.70
74573;BME280;63071;51.526;-0.134;2022-09-17T08:38:01;101835.34;;;24.81;30.29
74573;BME280;63071;51.526;-0.134;2022-09-17T08:40:26;101834.94;;;24.79;30.88
74573;BME280;63071;51.526;-0.134;2022-09-17T08:42:59;101831.16;;;24.80;30.71
74573;BME280;63071;51.526;-0.134;2022-09-17T08:45:27;101836.50;;;24.80;30.22
74573;BME280;63071;51.526;-0.134;2022-09-17T08:48:02;101834.16;;;24.78;30.27
74573;BME280;63071;51.526;-0.134;2022-09-17T08:50:34;101842.25;;;24.82;30.27
74573;BME280;63071;51.526;-0.134;2022-09-17T09:02:24;101855.25;;;24.84;30.55
74573;BME280;63071;51.526;-0.134;2022-09-17T09:05:01;101849.91;;;24.84;30.35
74573;BME280;63071;51.526;-0.134;2022-09-17T09:07:34;101850.69;;;24.84;30.50
74573;BME280;63071;51.526;-0.134;2022-09-17T09:12:33;101850.69;;;24.84;30.37
74573;BME280;63071;51.526;-0.134;2022-09-17T09:15:07;101844.97;;;24.86;30.47
74573;BME280;63071;51.526;-0.134;2022-09-17T09:17:48;101843.09;;;24.86;30.18
74573;BME280;63071;51.526;-0.134;2022-09-17T09:20:26;101836.50;;;24.80;30.21
74573;BME280;63071;51.526;-0.134;2022-09-17T09:22:54;101841.53;;;24.85;30.54
74573;BME280;63071;51.526;-0.134;2022-09-17T09:25:25;101849.22;;;24.87;30.17
74573;BME280;63071;51.526;-0.134;2022-09-17T09:27:59;101847.72;;;24.89;30.10
74573;BME280;63071;51.526;-0.134;2022-09-17T09:30:44;101848.47;;;24.90;29.95
74573;BME280;63071;51.526;-0.134;2022-09-17T09:33:18;101857.66;;;24.89;29.88
74573;BME280;63071;51.526;-0.134;2022-09-17T09:35:48;101845.34;;;24.84;30.25
74573;BME280;63071;51.526;-0.134;2022-09-17T09:41:15;101835.41;;;24.85;30.44
74573;BME280;63071;51.526;-0.134;2022-09-17T09:46:30;101844.22;;;24.85;30.27
74573;BME280;63071;51.526;-0.134;2022-09-17T09:49:15;101844.69;;;24.91;30.41
74573;BME280;63071;51.526;-0.134;2022-09-17T09:52:02;101844.69;;;24.91;30.38
74573;BME280;63071;51.526;-0.134;2022-09-17T09:54:49;101846.22;;;24.92;30.26
74573;BME280;63071;51.526;-0.134;2022-09-17T10:02:47;101845.47;;;24.91;30.18
74573;BME280;63071;51.526;-0.134;2022-09-17T10:05:16;101848.13;;;24.91;30.15
74573;BME280;63071;51.526;-0.134;2022-09-17T10:07:44;101842.78;;;24.91;30.04
74573;BME280;63071;51.526;-0.134;2022-09-17T10:10:09;101844.34;;;24.92;29.64
74573;BME280;63071;51.526;-0.134;2022-09-17T10:12:35;101851.16;;;24.90;29.81
74573;BME280;63071;51.526;-0.134;2022-09-17T10:15:24;101847.03;;;24.92;29.48
74573;BME280;63071;51.526;-0.134;2022-09-17T10:18:10;101847.38;;;24.91;29.75
74573;BME280;63071;51.526;-0.134;2022-09-17T10:20:51;101836.31;;;24.92;30.00
74573;BME280;63071;51.526;-0.134;2022-09-17T10:23:19;101829.84;;;24.93;30.08
74573;BME280;63071;51.526;-0.134;2022-09-17T10:25:46;101842.09;;;24.94;30.00
74573;BME280;63071;51.526;-0.134;2022-09-17T10:28:36;101830.25;;;24.95;29.99
74573;BME280;63071;51.526;-0.134;2022-09-17T10:31:07;101837.94;;;24.97;30.09
74573;BME280;63071;51.526;-0.134;2022-09-17T10:33:57;101831.03;;;24.96;29.92
74573;BME280;63071;51.526;-0.134;2022-09-17T10:36:42;101834.13;;;24.98;29.83
74573;BME280;63071;51.526;-0.134;2022-09-17T10:39:34;101836.00;;;24.97;30.14
74573;BME280;63071;51.526;-0.134;2022-09-17T10:42:12;101829.91;;;24.97;29.97
74573;BME280;63071;51.526;-0.134;2022-09-17T10:44:57;101825.69;;;24.96;30.17
74573;BME280;63071;51.526;-0.134;2022-09-17T10:47:35;101822.66;;;24.97;29.84
74573;BME280;63071;51.526;-0.134;2022-09-17T10:50:13;101793.47;;;24.89;29.42
74573;BME280;63071;51.526;-0.134;2022-09-17T10:52:47;101808.50;;;24.97;29.37
74573;BME280;63071;51.526;-0.134;2022-09-17T10:55:43;101800.47;;;24.97;29.60
74573;BME280;63071;51.526;-0.134;2022-09-17T11:06:21;101801.84;;;24.87;29.85
74573;BME280;63071;51.526;-0.134;2022-09-17T11:19:42;101818.44;;;24.96;29.13
74573;BME280;63071;51.526;-0.134;2022-09-17T11:28:04;101807.31;;;24.94;29.45
74573;BME280;63071;51.526;-0.134;2022-09-17T11:31:44;101795.91;;;24.97;29.50
74573;BME280;63071;51.526;-0.134;2022-09-17T11:34:07;101791.34;;;24.98;29.12
74573;BME280;63071;51.526;-0.134;2022-09-17T11:36:52;101787.09;;;24.97;29.45
74573;BME280;63071;51.526;-0.134;2022-09-17T11:39:35;101791.69;;;24.96;29.27
74573;BME280;63071;51.526;-0.134;2022-09-17T11:42:11;101774.81;;;24.92;28.78
74573;BME280;63071;51.526;-0.134;2022-09-17T11:44:55;101790.13;;;24.95;29.49
74573;BME280;63071;51.526;-0.134;2022-09-17T11:47:35;101789.03;;;24.96;29.11
74573;BME280;63071;51.526;-0.134;2022-09-17T11:52:37;101784.84;;;24.99;29.33
74573;BME280;63071;51.526;-0.134;2022-09-17T11:57:36;101770.28;;;24.96;28.55
74573;BME280;63071;51.526;-0.134;2022-09-17T12:00:05;101768.38;;;24.97;29.23
74573;BME280;63071;51.526;-0.134;2022-09-17T12:05:41;101765.31;;;24.95;28.98
74573;BME280;63071;51.526;-0.134;2022-09-17T12:08:15;101763.38;;;24.95;28.72
74573;BME280;63071;51.526;-0.134;2022-09-17T12:13:22;101764.59;;;24.98;29.14
74573;BME280;63071;51.526;-0.134;2022-09-17T12:15:59;101755.78;;;24.97;28.86
74573;BME280;63071;51.526;-0.134;2022-09-17T12:18:44;101757.75;;;25.01;28.90
74573;BME280;63071;51.526;-0.134;2022-09-17T12:21:17;101756.63;;;25.02;29.00
74573;BME280;63071;51.526;-0.134;2022-09-17T12:24:00;101755.06;;;25.01;29.04
74573;BME280;63071;51.526;-0.134;2022-09-17T12:35:38;101762.38;;;25.04;29.35
74573;BME280;63071;51.526;-0.134;2022-09-17T12:46:48;101767.78;;;25.07;28.90
74573;BME280;63071;51.526;-0.134;2022-09-17T12:58:01;101759.41;;;25.09;28.70
74573;BME280;63071;51.526;-0.134;2022-09-17T13:00:57;101767.44;;;25.09;29.10
74573;BME280;63071;51.526;-0.134;2022-09-17T13:06:15;101747.94;;;25.08;28.81
74573;BME280;63071;51.526;-0.134;2022-09-17T13:09:02;101752.16;;;25.09;28.77
74573;BME280;63071;51.526;-0.134;2022-09-17T13:11:49;101754.81;;;25.09;28.51
74573;BME280;63071;51.526;-0.134;2022-09-17T13:20:14;101749.88;;;25.11;28.93
74573;BME280;63071;51.526;-0.134;2022-09-17T13:22:47;101747.97;;;25.12;29.09
74573;BME280;63071;51.526;-0.134;2022-09-17T13:25:16;101733.06;;;25.11;28.82
74573;BME280;63071;51.526;-0.134;2022-09-17T13:27:43;101743.44;;;25.12;28.72
74573;BME280;63071;51.526;-0.134;2022-09-17T13:30:11;101743.44;;;25.12;29.04
74573;BME280;63071;51.526;-0.134;2022-09-17T13:37:33;101731.94;;;25.12;28.61
74573;BME280;63071;51.526;-0.134;2022-09-17T13:40:01;101738.06;;;25.12;28.77
74573;BME280;63071;51.526;-0.134;2022-09-17T13:42:43;101736.50;;;25.11;28.98
74573;BME280;63071;51.526;-0.134;2022-09-17T13:45:11;101722.03;;;25.12;29.11
74573;BME280;63071;51.526;-0.134;2022-09-17T13:50:34;101725.81;;;25.11;28.73
74573;BME280;63071;51.526;-0.134;2022-09-17T13:53:26;101711.31;;;25.12;28.64
74573;BME280;63071;51.526;-0.134;2022-09-17T13:55:54;101710.53;;;25.12;28.64
74573;BME280;63071;51.526;-0.134;2022-09-17T13:58:29;101718.94;;;25.10;28.97
74573;BME280;63071;51.526;-0.134;2022-09-17T14:00:57;101710.91;;;25.10;28.77
74573;BME280;63071;51.526;-0.134;2022-09-17T14:13:48;101706.63;;;25.06;28.84
74573;BME280;63071;51.526;-0.134;2022-09-17T14:38:12;101714.22;;;25.04;28.86
74573;BME280;63071;51.526;-0.134;2022-09-17T14:41:06;101715.03;;;25.04;29.15
74573;BME280;63071;51.526;-0.134;2022-09-17T14:44:07;101698.19;;;25.04;29.19
74573;BME280;63071;51.526;-0.134;2022-09-17T14:47:01;101693.91;;;24.99;28.74
74573;BME280;63071;51.526;-0.134;2022-09-17T14:49:31;101682.50;;;25.02;28.52
74573;BME280;63071;51.526;-0.134;2022-09-17T14:51:59;101689.34;;;24.99;28.81
74573;BME280;63071;51.526;-0.134;2022-09-17T14:54:30;101694.75;;;25.03;28.88
74573;BME280;63071;51.526;-0.134;2022-09-17T15:02:02;101687.88;;;25.02;28.69
74573;BME280;63071;51.526;-0.134;2022-09-17T15:04:27;101686.72;;;25.03;29.00
74573;BME280;63071;51.526;-0.134;2022-09-17T15:07:07;101684.03;;;25.03;28.45
74573;BME280;63071;51.526;-0.134;2022-09-17T15:09:33;101687.06;;;25.02;28.78
74573;BME280;63071;51.526;-0.134;2022-09-17T15:11:59;101688.22;;;25.01;28.72
74573;BME280;63071;51.526;-0.134;2022-09-17T15:14:28;101688.97;;;25.01;28.60
74573;BME280;63071;51.526;-0.134;2022-09-17T15:16:57;101677.09;;;24.98;28.61
74573;BME280;63071;51.526;-0.134;2022-09-17T15:20:02;101682.88;;;25.01;28.77
74573;BME280;63071;51.526;-0.134;2022-09-17T15:22:31;101674.84;;;25.01;28.96
74573;BME280;63071;51.526;-0.134;2022-09-17T15:25:08;101682.09;;;25.00;28.64
74573;BME280;63071;51.526;-0.134;2022-09-17T15:27:40;101675.97;;;24.99;29.12
74573;BME280;63071;51.526;-0.134;2022-09-17T15:30:17;101679.78;;;24.98;28.78
74573;BME280;63071;51.526;-0.134;2022-09-17T15:32:51;101679.78;;;24.98;29.04
74573;BME280;63071;51.526;-0.134;2022-09-17T15:35:30;101671.69;;;24.95;28.80
74573;BME280;63071;51.526;-0.134;2022-09-17T15:37:58;101677.03;;;24.95;28.67
74573;BME280;63071;51.526;-0.134;2022-09-17T15:40:39;101671.63;;;24.91;28.53
74573;BME280;63071;51.526;-0.134;2022-09-17T15:43:22;101672.06;;;24.93;28.42
74573;BME280;63071;51.526;-0.134;2022-09-17T15:45:49;101671.63;;;24.91;28.53
74573;BME280;63071;51.526;-0.134;2022-09-17T15:50:55;101674.31;;;24.91;28.60
74573;BME280;63071;51.526;-0.134;2022-09-17T15:53:26;101667.84;;;24.92;28.42
74573;BME280;63071;51.526;-0.134;2022-09-17T15:56:08;101668.19;;;24.91;28.21
74573;BME280;63071;51.526;-0.134;2022-09-17T16:08:54;101667.44;;;24.90;28.67